Time;durP1;ratioP1;P1;durP2;ratioP2;P2;SDS_P1;SDS_P2;PMS_P1;PMS_P2;Temp;Humidity;BMP_temperature;BMP_pressure;BME280_temperature;BME280_humidity;BME280_pressure;Samples;Min_cycle;Max_cycle;Signal;HPM_P1;HPM_P2
2023/12/10 00:00:21;;;;;;;19.07;9.60;;;;;;;5.29;65.65;99238.50;5030908;28;20260;-88
2023/12/10 00:02:47;;;;;;;26.20;13.07;;;;;;;5.29;66.02;99237.66;5031057;28;20180;-89
2023/12/10 00:05:14;;;;;;;20.03;11.93;;;;;;;5.30;65.62;99241.94;5031150;28;20236;-89
2023/12/10 00:07:41;;;;;;;22.97;12.23;;;;;;;5.29;65.47;99235.06;5030141;28;20245;-88
2023/12/10 00:10:07;;;;;;;29.43;13.20;;;;;;;5.29;64.95;99241.09;5031199;28;20179;-88
2023/12/10 00:12:33;;;;;;;22.90;10.10;;;;;;;5.30;64.91;99235.00;5031423;28;20186;-89
2023/12/10 00:15:00;;;;;;;19.77;10.33;;;;;;;5.31;64.71;99239.31;5029933;28;20626;-88
2023/12/10 00:17:27;;;;;;;19.67;10.07;;;;;;;5.25;64.73;99249.88;5030983;28;20172;-88
2023/12/10 00:19:52;;;;;;;21.17;10.37;;;;;;;5.22;64.54;99255.16;5030828;28;20550;-88
2023/12/10 00:22:18;;;;;;;22.13;9.77;;;;;;;5.24;64.54;99263.75;5031085;28;20174;-88
2023/12/10 00:24:44;;;;;;;17.33;8.27;;;;;;;5.24;64.65;99263.75;5017938;28;20273;-88
2023/12/10 00:27:10;;;;;;;22.70;9.63;;;;;;;5.26;64.45;99261.16;5011581;28;20537;-88
2023/12/10 00:29:36;;;;;;;18.57;8.80;;;;;;;5.26;64.22;99259.41;5047377;28;20185;-89
2023/12/10 00:32:04;;;;;;;14.70;7.57;;;;;;;5.24;64.31;99281.13;5049725;28;20212;-88
2023/12/10 00:34:30;;;;;;;20.07;9.17;;;;;;;5.19;64.08;99277.81;5012378;28;20193;-88
2023/12/10 00:36:57;;;;;;;16.37;8.17;;;;;;;5.13;64.36;99286.63;5010773;28;20182;-88
2023/12/10 00:39:24;;;;;;;18.30;8.27;;;;;;;5.11;64.53;99287.56;5027567;28;20247;-88
2023/12/10 00:41:50;;;;;;;17.87;8.43;;;;;;;5.02;64.76;99283.47;5030504;28;20196;-88
2023/12/10 00:44:17;;;;;;;22.13;8.67;;;;;;;4.95;64.86;99284.56;5029556;28;20279;-89
2023/12/10 00:46:44;;;;;;;23.73;11.77;;;;;;;4.93;65.37;99268.13;5030305;28;20205;-89
2023/12/10 00:49:11;;;;;;;25.53;11.07;;;;;;;4.95;65.03;99267.19;5030507;28;20625;-89
2023/12/10 00:51:37;;;;;;;25.13;10.20;;;;;;;5.01;65.58;99262.72;5021547;28;20183;-88
2023/12/10 00:54:07;;;;;;;23.60;11.27;;;;;;;4.99;65.68;99257.59;5009709;28;20522;-89
2023/12/10 00:56:34;;;;;;;29.20;11.93;;;;;;;4.99;65.86;99252.38;5010631;28;20196;-89
2023/12/10 00:59:01;;;;;;;29.43;12.20;;;;;;;5.00;66.01;99245.44;5026535;28;20189;-88
2023/12/10 01:01:28;;;;;;;25.83;10.83;;;;;;;5.00;66.08;99238.53;5029335;28;20199;-88
2023/12/10 01:03:53;;;;;;;31.17;12.17;;;;;;;5.04;66.47;99234.91;5029078;28;20671;-88
2023/12/10 01:06:20;;;;;;;28.40;10.50;;;;;;;5.08;66.66;99225.31;5030443;28;20194;-88
2023/12/10 01:08:47;;;;;;;22.17;10.43;;;;;;;5.12;66.53;99217.38;5030247;28;20180;-88
2023/12/10 01:11:14;;;;;;;26.77;10.33;;;;;;;5.11;66.45;99210.47;5029397;28;20277;-89
2023/12/10 01:13:41;;;;;;;33.33;12.10;;;;;;;5.11;66.73;99207.88;5028910;28;20186;-88
2023/12/10 01:16:07;;;;;;;24.77;9.97;;;;;;;5.14;66.59;99201.72;5030110;28;20267;-88
2023/12/10 01:18:32;;;;;;;40.93;13.10;;;;;;;5.18;66.92;99199.00;5030180;28;20263;-88
2023/12/10 01:20:58;;;;;;;35.40;12.73;;;;;;;5.16;66.75;99207.75;5028867;28;20182;-88
2023/12/10 01:23:25;;;;;;;42.77;12.77;;;;;;;5.17;67.14;99196.44;5028757;28;20234;-88
2023/12/10 01:25:52;;;;;;;27.40;11.00;;;;;;;5.16;66.97;99197.34;5029060;28;20630;-89
2023/12/10 01:28:18;;;;;;;29.77;12.37;;;;;;;5.16;67.43;99193.03;5028966;28;20681;-89
2023/12/10 01:30:43;;;;;;;31.27;13.40;;;;;;;5.18;67.08;99199.00;5029969;28;20184;-88
2023/12/10 01:33:10;;;;;;;36.73;14.27;;;;;;;5.19;67.10;99202.47;5029899;28;20190;-88
2023/12/10 01:35:35;;;;;;;39.73;13.77;;;;;;;5.21;66.96;99196.31;5030128;28;20199;-88
2023/12/10 01:38:01;;;;;;;31.57;13.10;;;;;;;5.22;67.20;99198.00;5028933;28;20278;-88
2023/12/10 01:40:27;;;;;;;23.90;12.13;;;;;;;5.11;67.50;99199.25;5029863;28;20173;-89
2023/12/10 01:42:53;;;;;;;26.20;11.13;;;;;;;5.09;67.39;99194.06;5029800;28;20186;-88
2023/12/10 01:45:19;;;;;;;51.13;11.67;;;;;;;4.95;67.77;99196.25;5029817;28;20646;-89
2023/12/10 01:47:47;;;;;;;22.20;9.07;;;;;;;4.91;68.37;99197.22;5028580;28;20202;-88
2023/12/10 01:50:15;;;;;;;27.13;9.00;;;;;;;4.76;68.92;99192.47;5029776;28;20625;-88
2023/12/10 01:52:47;;;;;;;18.17;6.83;;;;;;;4.56;69.83;99187.00;5029728;28;20193;-88
2023/12/10 01:55:15;;;;;;;19.80;7.27;;;;;;;4.74;69.44;99189.06;5016436;28;20178;-88
2023/12/10 01:57:42;;;;;;;29.30;9.43;;;;;;;4.62;69.69;99186.78;5009941;28;20735;-88
2023/12/10 02:00:08;;;;;;;26.87;9.90;;;;;;;4.52;69.91;99186.22;5026296;28;20214;-88
2023/12/10 02:02:39;;;;;;;20.60;6.27;;;;;;;4.59;69.80;99182.53;5029422;28;20189;-88
2023/12/10 02:05:08;;;;;;;20.47;7.20;;;;;;;4.58;69.79;99186.03;5028091;28;20205;-88
2023/12/10 02:07:35;;;;;;;19.80;6.00;;;;;;;4.63;70.06;99180.72;5029753;28;20275;-88
2023/12/10 02:10:03;;;;;;;25.70;8.27;;;;;;;4.62;69.88;99179.88;5029527;28;20184;-88
2023/12/10 02:12:31;;;;;;;22.50;7.73;;;;;;;4.69;69.97;99170.19;5030439;28;20644;-88
2023/12/10 02:14:56;;;;;;;16.43;6.33;;;;;;;4.75;69.80;99165.63;5031910;28;20183;-88
2023/12/10 02:17:23;;;;;;;18.00;7.20;;;;;;;4.69;69.77;99170.19;5032638;28;20250;-89
2023/12/10 02:19:50;;;;;;;27.13;8.50;;;;;;;4.56;69.86;99174.00;5032659;28;20186;-88
2023/12/10 02:22:21;;;;;;;18.80;8.67;;;;;;;4.77;69.52;99173.41;5031822;28;20184;-89
2023/12/10 02:24:56;;;;;;;29.87;7.50;;;;;;;4.71;69.86;99170.97;5032220;28;20198;-88
2023/12/10 02:27:22;;;;;;;17.70;6.50;;;;;;;4.80;69.74;99175.88;5032272;28;20196;-88
2023/12/10 02:29:49;;;;;;;18.30;6.47;;;;;;;4.82;70.10;99181.91;5032933;28;20189;-89
2023/12/10 02:32:16;;;;;;;19.20;6.50;;;;;;;4.77;69.91;99181.19;5023001;28;20252;-88
2023/12/10 02:34:43;;;;;;;15.93;6.50;;;;;;;4.81;69.74;99185.38;5013061;28;20183;-88
2023/12/10 02:37:09;;;;;;;11.70;5.10;;;;;;;4.86;69.91;99183.50;5016718;28;20182;-89
2023/12/10 02:39:36;;;;;;;15.17;5.77;;;;;;;4.86;69.43;99179.19;5033069;28;20194;-88
2023/12/10 02:42:02;;;;;;;11.87;5.37;;;;;;;4.82;69.53;99182.75;5031442;28;20195;-89
2023/12/10 02:44:28;;;;;;;14.60;5.80;;;;;;;4.90;69.62;99185.13;5031442;28;20549;-88
2023/12/10 02:46:55;;;;;;;13.13;6.03;;;;;;;4.96;69.50;99190.13;5032560;28;20199;-88
2023/12/10 02:49:21;;;;;;;15.27;6.13;;;;;;;4.97;69.47;99186.66;5032257;28;20198;-89
2023/12/10 02:51:48;;;;;;;12.87;5.27;;;;;;;5.04;69.41;99192.50;5032306;28;20206;-88
2023/12/10 02:54:15;;;;;;;16.23;7.47;;;;;;;5.08;69.32;99179.41;5032069;28;20193;-88
2023/12/10 02:56:41;;;;;;;17.67;5.93;;;;;;;5.08;69.75;99173.34;5031323;28;20176;-89
2023/12/10 02:59:06;;;;;;;15.20;6.07;;;;;;;5.12;69.66;99168.00;5031252;28;20571;-88
2023/12/10 03:01:33;;;;;;;22.13;8.33;;;;;;;5.22;69.69;99166.81;5031974;28;20227;-88
2023/12/10 03:04:00;;;;;;;20.20;7.07;;;;;;;5.30;69.15;99170.03;5031563;28;20189;-89
2023/12/10 03:06:25;;;;;;;14.40;5.37;;;;;;;5.32;68.69;99159.63;5030830;28;20221;-88
2023/12/10 03:08:52;;;;;;;17.47;6.50;;;;;;;5.34;69.10;99166.47;5031169;28;20618;-88
2023/12/10 03:11:18;;;;;;;24.50;8.57;;;;;;;5.15;68.99;99167.91;5032280;28;20178;-88
2023/12/10 03:13:45;;;;;;;24.10;7.57;;;;;;;4.99;69.19;99158.88;5031716;28;20186;-88
2023/12/10 03:16:12;;;;;;;23.67;8.33;;;;;;;4.96;69.67;99169.34;5032275;28;20178;-89
2023/12/10 03:18:38;;;;;;;17.97;6.90;;;;;;;5.13;68.99;99153.28;5032086;28;20182;-89
2023/12/10 03:21:03;;;;;;;17.23;7.63;;;;;;;5.25;68.60;99145.94;5032205;28;20620;-88
2023/12/10 03:23:29;;;;;;;26.87;9.23;;;;;;;5.22;68.31;99143.44;5030915;28;20222;-89
2023/12/10 03:25:55;;;;;;;18.53;7.23;;;;;;;4.98;68.73;99134.66;5031215;28;20439;-89
2023/12/10 03:28:21;;;;;;;18.93;7.90;;;;;;;5.05;68.49;99132.72;5031430;28;20617;-88
2023/12/10 03:30:48;;;;;;;25.77;8.43;;;;;;;5.08;68.08;99136.97;5030773;28;20204;-88
2023/12/10 03:33:13;;;;;;;25.10;8.47;;;;;;;5.00;68.38;99134.63;5030679;28;20183;-88
2023/12/10 03:35:39;;;;;;;27.67;9.57;;;;;;;4.88;68.83;99129.78;5031396;28;20193;-88
2023/12/10 03:38:05;;;;;;;22.27;7.43;;;;;;;4.83;68.50;99136.84;5030601;28;20193;-88
2023/12/10 03:40:31;;;;;;;16.33;6.93;;;;;;;4.55;69.06;99148.94;5031456;28;20184;-88
2023/12/10 03:42:57;;;;;;;13.70;6.27;;;;;;;4.66;69.23;99144.28;5031532;28;20189;-88
2023/12/10 03:45:24;;;;;;;13.77;6.40;;;;;;;4.80;68.99;99147.31;5031064;28;20535;-89
2023/12/10 03:47:51;;;;;;;20.80;7.60;;;;;;;4.85;68.82;99150.63;5020446;28;20205;-89
2023/12/10 03:50:19;;;;;;;31.10;11.47;;;;;;;4.97;68.12;99163.28;5010664;28;20262;-88
2023/12/10 03:52:45;;;;;;;18.73;8.17;;;;;;;4.95;68.05;99172.88;5011637;28;20187;-88
2023/12/10 03:55:12;;;;;;;20.63;8.43;;;;;;;4.97;67.77;99179.72;5022468;28;20621;-88
2023/12/10 03:57:39;;;;;;;17.27;8.80;;;;;;;5.00;67.63;99186.56;5030040;28;20178;-88
2023/12/10 04:00:06;;;;;;;22.40;9.43;;;;;;;5.04;67.60;99182.13;5029991;28;20690;-88
2023/12/10 04:02:33;;;;;;;20.13;7.67;;;;;;;5.04;67.52;99182.13;5030246;28;20214;-88
2023/12/10 04:05:00;;;;;;;25.63;9.63;;;;;;;5.04;67.40;99179.50;5029988;28;20271;-88
2023/12/10 04:07:26;;;;;;;55.00;23.07;;;;;;;5.03;67.09;99180.44;5031095;28;20202;-88
2023/12/10 04:09:52;;;;;;;14.30;7.40;;;;;;;5.06;66.83;99185.53;5031246;28;20247;-88
2023/12/10 04:12:17;;;;;;;13.30;5.20;;;;;;;5.09;66.87;99181.09;5030629;28;20617;-88
2023/12/10 04:14:47;;;;;;;13.27;5.50;;;;;;;5.07;66.37;99192.41;5030091;28;20189;-88
2023/12/10 04:17:13;;;;;;;12.17;5.37;;;;;;;5.03;65.57;99191.69;5029991;28;20183;-88
2023/12/10 04:19:41;;;;;;;7.60;4.40;;;;;;;5.06;64.03;99186.38;5030744;28;20197;-88
2023/12/10 04:22:08;;;;;;;11.77;5.67;;;;;;;4.87;65.00;99196.44;5029952;28;20259;-88
2023/12/10 04:24:33;;;;;;;11.63;5.33;;;;;;;4.80;64.87;99196.66;5029542;28;20234;-88
2023/12/10 04:27:00;;;;;;;13.40;6.40;;;;;;;4.77;65.55;99196.78;5031053;28;20198;-88
2023/12/10 04:29:26;;;;;;;12.90;7.03;;;;;;;4.79;65.47;99210.56;5029527;28;20562;-88
2023/12/10 04:31:54;;;;;;;20.37;6.67;;;;;;;4.82;65.51;99202.69;5029643;28;20255;-88
2023/12/10 04:34:20;;;;;;;12.93;5.97;;;;;;;4.79;65.50;99207.97;5029625;28;20193;-89
2023/12/10 04:36:47;;;;;;;11.23;5.43;;;;;;;4.83;65.72;99210.41;5030730;28;20175;-88
2023/12/10 04:39:13;;;;;;;20.03;7.20;;;;;;;4.87;65.48;99211.19;5029517;28;20676;-88
2023/12/10 04:41:40;;;;;;;16.87;7.10;;;;;;;4.83;65.70;99209.56;5029580;28;20182;-88
2023/12/10 04:44:07;;;;;;;12.63;6.50;;;;;;;4.87;65.89;99206.00;5029643;28;20278;-88
2023/12/10 04:46:33;;;;;;;23.50;7.50;;;;;;;4.86;65.76;99205.13;5030903;28;20217;-88
2023/12/10 04:48:59;;;;;;;13.67;5.57;;;;;;;4.89;65.73;99204.19;5029918;28;20186;-88
2023/12/10 04:51:26;;;;;;;12.67;5.37;;;;;;;4.89;65.74;99212.84;5029365;28;20187;-88
2023/12/10 04:53:52;;;;;;;10.17;4.13;;;;;;;4.88;65.37;99205.94;5030459;28;20589;-88
2023/12/10 04:56:18;;;;;;;12.80;5.63;;;;;;;4.89;65.44;99205.06;5028909;28;20182;-88
2023/12/10 04:58:45;;;;;;;13.40;5.87;;;;;;;4.87;65.21;99221.59;5030376;28;20200;-88
2023/12/10 05:01:11;;;;;;;11.63;5.43;;;;;;;4.79;65.62;99214.00;5030136;28;20190;-88
2023/12/10 05:03:38;;;;;;;12.20;5.43;;;;;;;4.83;65.43;99214.75;5030262;28;20240;-88
2023/12/10 05:06:04;;;;;;;17.73;5.83;;;;;;;4.69;65.63;99211.72;5030111;28;20182;-88
2023/12/10 05:08:31;;;;;;;11.67;5.10;;;;;;;4.50;66.57;99211.38;5029260;28;20207;-88
2023/12/10 05:10:56;;;;;;;16.17;6.17;;;;;;;4.40;66.94;99209.06;5029148;28;20243;-88
2023/12/10 05:13:22;;;;;;;13.37;5.97;;;;;;;4.38;66.92;99211.66;5029974;28;20190;-88
2023/12/10 05:15:49;;;;;;;9.93;4.67;;;;;;;4.41;67.23;99210.72;5030355;28;20639;-88
2023/12/10 05:18:16;;;;;;;11.70;5.13;;;;;;;4.53;66.78;99210.44;5029154;28;20179;-88
2023/12/10 05:20:42;;;;;;;17.30;6.20;;;;;;;4.51;66.35;99213.03;5028721;28;20186;-88
2023/12/10 05:23:08;;;;;;;12.00;5.40;;;;;;;4.58;66.73;99218.94;5030117;28;20621;-88
2023/12/10 05:25:34;;;;;;;12.17;5.80;;;;;;;4.69;66.87;99224.69;5028952;28;20282;-88
2023/12/10 05:28:00;;;;;;;13.80;5.77;;;;;;;4.78;66.70;99232.22;5029953;28;20296;-88
2023/12/10 05:30:27;;;;;;;10.67;4.93;;;;;;;4.90;66.47;99221.50;5028939;28;20248;-88
2023/12/10 05:32:53;;;;;;;10.80;4.83;;;;;;;4.99;65.93;99226.41;5030526;28;20175;-88
2023/12/10 05:35:20;;;;;;;16.23;5.13;;;;;;;5.04;65.98;99219.34;5029945;28;20170;-88
2023/12/10 05:37:45;;;;;;;13.30;5.07;;;;;;;5.07;65.85;99221.84;5028492;28;20217;-88
2023/12/10 05:40:12;;;;;;;13.03;5.70;;;;;;;5.04;65.57;99223.69;5029177;28;20198;-88
2023/12/10 05:42:39;;;;;;;13.77;5.30;;;;;;;5.07;65.96;99229.66;5013655;28;20183;-88
2023/12/10 05:45:05;;;;;;;15.53;5.53;;;;;;;5.09;65.83;99227.84;5010192;28;20211;-88
2023/12/10 05:47:32;;;;;;;10.70;4.60;;;;;;;5.16;65.58;99226.78;5013280;28;20239;-88
2023/12/10 05:49:59;;;;;;;11.30;5.67;;;;;;;5.29;65.61;99211.69;5013992;28;20607;-89
2023/12/10 05:52:24;;;;;;;12.17;5.90;;;;;;;5.24;65.21;99213.56;5031106;28;20182;-88
2023/12/10 05:54:51;;;;;;;13.47;6.43;;;;;;;5.19;65.25;99224.06;5033220;28;20187;-89
2023/12/10 05:57:17;;;;;;;9.93;4.47;;;;;;;5.20;65.71;99225.78;5029928;28;20181;-89
2023/12/10 05:59:43;;;;;;;12.77;6.00;;;;;;;4.91;66.24;99223.19;5013397;28;20187;-88
2023/12/10 06:02:10;;;;;;;14.13;5.10;;;;;;;4.83;66.89;99230.34;5013620;28;20224;-88
2023/12/10 06:04:36;;;;;;;12.67;5.83;;;;;;;4.88;66.81;99233.66;5024424;28;20201;-88
2023/12/10 06:07:03;;;;;;;13.47;5.73;;;;;;;4.92;66.65;99241.34;5033497;28;20199;-88
2023/12/10 06:09:30;;;;;;;16.33;6.20;;;;;;;4.98;66.87;99240.28;5033020;28;20234;-88
2023/12/10 06:11:56;;;;;;;12.27;6.43;;;;;;;4.80;66.89;99235.59;5014347;28;20189;-88
2023/12/10 06:14:22;;;;;;;12.77;6.57;;;;;;;4.84;66.90;99226.84;5028727;28;20184;-89
2023/12/10 06:16:47;;;;;;;13.60;6.53;;;;;;;4.89;67.12;99224.97;5031752;28;20194;-88
2023/12/10 06:19:13;;;;;;;10.30;5.53;;;;;;;4.94;66.10;99223.97;5032676;28;20213;-88
2023/12/10 06:21:40;;;;;;;10.13;4.73;;;;;;;4.94;66.39;99212.72;5031906;28;20629;-89
2023/12/10 06:24:07;;;;;;;14.13;7.03;;;;;;;4.97;66.42;99212.63;5032595;28;20241;-88
2023/12/10 06:26:32;;;;;;;16.20;5.33;;;;;;;4.90;66.82;99205.91;5032483;28;20259;-88
2023/12/10 06:28:59;;;;;;;17.17;6.73;;;;;;;4.87;66.87;99216.38;5032059;28;20544;-89
2023/12/10 06:31:26;;;;;;;17.43;7.53;;;;;;;4.97;66.62;99212.63;5032884;28;20622;-88
2023/12/10 06:33:52;;;;;;;14.87;6.13;;;;;;;4.95;67.06;99202.25;5032528;28;20200;-89
2023/12/10 06:36:19;;;;;;;16.03;5.93;;;;;;;5.01;66.78;99214.22;5031646;28;20553;-88
2023/12/10 06:38:44;;;;;;;15.33;6.03;;;;;;;5.07;66.86;99218.41;5032892;28;20190;-89
2023/12/10 06:41:11;;;;;;;17.00;7.13;;;;;;;5.14;66.49;99217.31;5032665;28;20214;-88
2023/12/10 06:43:38;;;;;;;15.33;6.93;;;;;;;5.20;66.75;99212.81;5031474;28;20197;-89
2023/12/10 06:46:06;;;;;;;13.83;6.37;;;;;;;5.23;66.42;99225.72;5031402;28;20196;-88
2023/12/10 06:48:33;;;;;;;15.37;7.27;;;;;;;5.20;66.62;99219.75;5031317;28;20197;-89
2023/12/10 06:51:01;;;;;;;16.80;7.37;;;;;;;5.14;66.82;99214.72;5032391;28;20198;-88
2023/12/10 06:53:28;;;;;;;21.23;9.93;;;;;;;5.13;66.24;99210.44;5032214;28;20188;-90
2023/12/10 06:55:54;;;;;;;35.17;19.80;;;;;;;5.07;66.03;99210.59;5032535;28;20239;-89
2023/12/10 06:58:21;;;;;;;23.83;12.37;;;;;;;5.12;65.99;99213.91;5031437;28;20182;-89
2023/12/10 07:00:46;;;;;;;22.77;13.07;;;;;;;5.04;66.33;99219.34;5031234;28;20273;-89
2023/12/10 07:03:13;;;;;;;31.30;14.20;;;;;;;5.08;66.45;99218.38;5031043;28;20277;-89
2023/12/10 07:05:40;;;;;;;31.80;14.23;;;;;;;5.20;66.12;99218.00;5032759;28;20206;-89
2023/12/10 07:08:07;;;;;;;29.87;14.50;;;;;;;5.33;65.14;99219.34;5031095;28;20212;-89
2023/12/10 07:10:33;;;;;;;42.90;14.97;;;;;;;5.39;65.23;99211.34;5043319;28;20182;-89
2023/12/10 07:12:59;;;;;;;22.97;12.63;;;;;;;5.49;65.36;99211.91;5045172;28;20177;-89
2023/12/10 07:15:26;;;;;;;24.97;10.53;;;;;;;5.58;65.13;99201.25;5032665;28;20515;-89
2023/12/10 07:17:52;;;;;;;22.50;10.60;;;;;;;5.65;64.81;99209.69;5031706;28;20375;-89
2023/12/10 07:20:19;;;;;;;21.90;10.97;;;;;;;5.51;64.61;99216.16;5031045;28;20183;-90
2023/12/10 07:22:45;;;;;;;28.47;11.47;;;;;;;5.40;64.51;99210.44;5030975;28;20211;-90
2023/12/10 07:25:11;;;;;;;25.80;10.33;;;;;;;5.49;64.57;99217.97;5030839;28;20264;-89
2023/12/10 07:27:38;;;;;;;20.60;9.43;;;;;;;5.54;64.63;99220.41;5030854;28;20213;-90
2023/12/10 07:30:04;;;;;;;27.10;11.07;;;;;;;5.54;64.61;99216.06;5032198;28;20185;-90
2023/12/10 07:32:31;;;;;;;24.13;11.47;;;;;;;5.49;65.15;99223.16;5031944;28;20182;-90
2023/12/10 07:34:58;;;;;;;24.27;12.90;;;;;;;5.52;65.64;99233.47;5030930;28;20196;-89
2023/12/10 07:37:24;;;;;;;23.20;11.63;;;;;;;5.53;65.00;99240.38;5031826;28;20167;-89
2023/12/10 07:39:50;;;;;;;23.07;11.07;;;;;;;5.55;65.00;99238.56;5033575;28;20271;-90
2023/12/10 07:42:17;;;;;;;23.37;10.97;;;;;;;5.61;65.15;99247.91;5051709;28;20622;-90
2023/12/10 07:44:43;;;;;;;19.20;9.30;;;;;;;5.74;65.04;99243.22;5051576;28;20541;-89
2023/12/10 07:47:10;;;;;;;30.83;12.10;;;;;;;5.79;64.62;99236.94;5033579;28;20200;-90
2023/12/10 07:49:37;;;;;;;21.73;10.03;;;;;;;5.93;64.47;99239.16;5030755;28;20190;-90
2023/12/10 07:52:04;;;;;;;22.20;9.77;;;;;;;5.98;64.54;99237.25;5031498;28;20636;-90
2023/12/10 07:54:31;;;;;;;16.03;8.03;;;;;;;6.07;63.56;99237.81;5030756;28;20246;-90
2023/12/10 07:56:56;;;;;;;22.27;9.23;;;;;;;6.15;64.09;99234.94;5030660;28;20227;-90
2023/12/10 07:59:23;;;;;;;20.57;10.73;;;;;;;6.24;63.95;99237.22;5031792;28;20273;-89
2023/12/10 08:01:50;;;;;;;24.23;10.43;;;;;;;6.30;63.85;99233.56;5031826;28;20193;-90
2023/12/10 08:04:16;;;;;;;21.60;10.37;;;;;;;6.33;63.48;99239.53;5030743;28;20188;-90
2023/12/10 08:06:43;;;;;;;20.70;9.97;;;;;;;6.05;64.62;99249.16;5031525;28;20546;-90
2023/12/10 08:09:10;;;;;;;22.20;9.73;;;;;;;6.05;65.52;99249.16;5030442;28;20196;-89
2023/12/10 08:11:37;;;;;;;15.93;8.20;;;;;;;6.14;63.90;99248.84;5030094;28;20201;-90
2023/12/10 08:14:04;;;;;;;17.80;7.60;;;;;;;6.02;64.64;99257.06;5030561;28;20523;-91
2023/12/10 08:16:31;;;;;;;15.00;7.30;;;;;;;6.00;64.12;99256.28;5032176;28;20257;-90
2023/12/10 08:19:00;;;;;;;20.67;7.43;;;;;;;5.98;65.05;99258.06;5030220;28;20193;-90
2023/12/10 08:21:27;;;;;;;15.77;7.47;;;;;;;6.00;64.73;99253.69;5031313;28;20203;-91
2023/12/10 08:23:52;;;;;;;17.80;7.47;;;;;;;6.03;63.90;99250.94;5031082;28;20556;-90
2023/12/10 08:26:21;;;;;;;17.53;7.67;;;;;;;5.96;64.65;99247.72;5030532;28;20193;-91
2023/12/10 08:28:47;;;;;;;14.60;6.23;;;;;;;5.81;64.93;99250.78;5030734;28;20184;-90
2023/12/10 08:31:14;;;;;;;15.17;6.80;;;;;;;5.71;65.50;99256.31;5029978;28;20223;-90
2023/12/10 08:33:44;;;;;;;15.13;6.10;;;;;;;5.76;66.28;99254.41;5031323;28;20229;-90
2023/12/10 08:36:10;;;;;;;15.03;6.33;;;;;;;5.75;65.73;99247.50;5011285;28;20182;-90
2023/12/10 08:38:35;;;;;;;12.17;6.60;;;;;;;5.79;65.21;99254.31;5017895;28;20272;-90
2023/12/10 08:41:02;;;;;;;12.70;6.83;;;;;;;5.79;64.71;99251.72;5030996;28;20206;-91
2023/12/10 08:43:30;;;;;;;16.43;5.87;;;;;;;5.74;65.13;99243.22;5030952;28;20186;-90
2023/12/10 08:45:58;;;;;;;13.70;5.93;;;;;;;5.77;65.48;99243.09;5029925;28;20203;-91
2023/12/10 08:48:25;;;;;;;18.07;6.47;;;;;;;5.82;65.06;99241.19;5030203;28;20281;-90
2023/12/10 08:50:52;;;;;;;13.20;6.63;;;;;;;5.82;65.42;99247.25;5030879;28;20190;-91
2023/12/10 08:53:19;;;;;;;12.67;6.00;;;;;;;5.79;64.81;99254.31;5030365;28;20548;-91
2023/12/10 08:55:44;;;;;;;13.60;6.30;;;;;;;5.67;64.37;99254.69;5036951;28;20178;-91
2023/12/10 08:58:11;;;;;;;15.37;6.37;;;;;;;5.53;64.44;99250.75;5050789;28;20256;-90
2023/12/10 09:00:38;;;;;;;15.83;6.70;;;;;;;5.40;65.07;99257.22;5049676;28;20178;-91
2023/12/10 09:03:05;;;;;;;8.83;5.23;;;;;;;5.46;65.41;99257.06;5030078;28;20186;-91
2023/12/10 09:05:32;;;;;;;20.30;8.90;;;;;;;5.34;64.52;99254.84;5030772;28;20189;-90
2023/12/10 09:07:58;;;;;;;24.33;8.27;;;;;;;5.40;65.11;99256.38;5029423;28;20206;-91
2023/12/10 09:10:23;;;;;;;15.73;7.73;;;;;;;5.50;65.09;99255.22;5029630;28;20563;-90
2023/12/10 09:12:50;;;;;;;17.03;7.77;;;;;;;5.58;65.54;99254.06;5030814;28;20190;-90
2023/12/10 09:15:16;;;;;;;20.87;9.20;;;;;;;5.52;65.38;99249.09;5030755;28;20636;-89
2023/12/10 09:17:41;;;;;;;17.57;8.60;;;;;;;5.46;66.07;99244.06;5035851;28;20246;-90
2023/12/10 09:20:09;;;;;;;18.53;7.93;;;;;;;5.52;66.14;99245.63;5049286;28;20185;-90
2023/12/10 09:22:36;;;;;;;17.17;7.67;;;;;;;5.45;66.17;99231.13;5050146;28;20186;-89
2023/12/10 09:25:04;;;;;;;21.23;8.90;;;;;;;5.49;66.60;99230.13;5040161;28;20634;-91
2023/12/10 09:27:31;;;;;;;18.47;8.47;;;;;;;5.59;66.09;99229.78;5029615;28;20202;-91
2023/12/10 09:29:58;;;;;;;17.83;8.60;;;;;;;5.61;66.08;99226.28;5030244;28;20624;-90
2023/12/10 09:32:27;;;;;;;15.37;7.80;;;;;;;5.52;66.20;99227.41;5029331;28;20627;-90
2023/12/10 09:34:53;;;;;;;18.13;7.70;;;;;;;5.42;66.68;99213.00;5023875;28;20183;-90
2023/12/10 09:37:20;;;;;;;20.27;8.70;;;;;;;5.42;66.57;99211.25;5010818;28;20178;-90
2023/12/10 09:39:47;;;;;;;19.60;9.20;;;;;;;5.58;66.81;99202.06;5009575;28;20208;-90
2023/12/10 09:42:13;;;;;;;14.20;7.00;;;;;;;5.64;66.62;99214.03;5020457;28;20625;-90
2023/12/10 09:44:40;;;;;;;18.03;7.50;;;;;;;5.73;67.37;99207.69;5029896;28;20202;-90
2023/12/10 09:47:10;;;;;;;15.87;7.30;;;;;;;5.71;66.48;99209.50;5029309;28;20201;-90
2023/12/10 09:49:42;;;;;;;14.57;6.60;;;;;;;5.76;65.67;99215.41;5029215;28;20184;-91
2023/12/10 09:52:09;;;;;;;24.67;7.97;;;;;;;5.67;65.28;99210.47;5047443;28;20189;-90
2023/12/10 09:54:42;;;;;;;11.57;6.07;;;;;;;5.78;65.68;99208.41;5050436;28;20743;-90
2023/12/10 09:57:11;;;;;;;12.20;7.00;;;;;;;5.72;65.33;99214.66;5039150;28;20317;-90
2023/12/10 09:59:37;;;;;;;18.80;7.93;;;;;;;5.72;65.30;99204.25;5030579;28;20205;-90
2023/12/10 10:02:05;;;;;;;17.43;8.20;;;;;;;5.78;64.63;99203.19;5021593;28;20274;-90
2023/12/10 10:04:31;;;;;;;15.80;6.00;;;;;;;5.72;64.75;99201.63;5023271;28;20188;-90
2023/12/10 10:06:58;;;;;;;16.43;8.40;;;;;;;5.67;64.80;99182.75;5028981;28;20676;-90
2023/12/10 10:09:25;;;;;;;16.40;6.40;;;;;;;5.61;64.18;99171.69;5029453;28;20210;-90
2023/12/10 10:11:50;;;;;;;20.73;7.40;;;;;;;5.68;65.01;99170.59;5029438;28;20269;-90
2023/12/10 10:14:19;;;;;;;16.53;6.60;;;;;;;5.74;64.95;99165.19;5033880;28;20211;-90
2023/12/10 10:16:49;;;;;;;16.13;7.57;;;;;;;5.79;64.66;99158.91;5049645;28;20174;-90
2023/12/10 10:19:17;;;;;;;18.90;7.00;;;;;;;5.72;64.76;99156.56;5036359;28;20199;-90
2023/12/10 10:21:44;;;;;;;14.00;6.07;;;;;;;5.67;64.45;99153.28;5029922;28;20163;-90
2023/12/10 10:24:10;;;;;;;12.20;6.40;;;;;;;5.88;65.31;99152.59;5029359;28;20267;-90
2023/12/10 10:26:37;;;;;;;24.83;8.73;;;;;;;5.97;64.61;99144.50;5029420;28;20197;-90
2023/12/10 10:29:07;;;;;;;22.17;9.33;;;;;;;5.98;64.44;99140.97;5028967;28;20199;-90
2023/12/10 10:31:35;;;;;;;20.47;7.90;;;;;;;6.03;64.08;99139.06;5029795;28;20527;-90
2023/12/10 10:34:05;;;;;;;23.43;9.23;;;;;;;6.05;64.03;99139.91;5032531;28;20187;-90
2023/12/10 10:36:33;;;;;;;23.80;9.03;;;;;;;6.08;64.03;99134.56;5032863;28;20175;-90
2023/12/10 10:38:59;;;;;;;18.53;7.57;;;;;;;6.07;63.77;99128.53;5032836;28;20174;-89
2023/12/10 10:41:26;;;;;;;17.00;8.30;;;;;;;6.12;65.26;99137.03;5031653;28;20187;-90
2023/12/10 10:43:56;;;;;;;22.07;9.20;;;;;;;6.18;65.64;99130.75;5032061;28;20186;-89
2023/12/10 10:46:24;;;;;;;15.33;7.70;;;;;;;6.42;65.69;99129.88;5032730;28;20191;-90
2023/12/10 10:48:54;;;;;;;26.77;10.20;;;;;;;6.52;65.60;99120.00;5032983;28;20176;-90
2023/12/10 10:51:27;;;;;;;22.20;9.40;;;;;;;6.60;65.26;99120.56;5031909;28;20556;-90
2023/12/10 10:53:59;;;;;;;24.03;10.17;;;;;;;6.55;64.38;99125.91;5032627;28;20158;-90
2023/12/10 10:56:25;;;;;;;19.57;9.13;;;;;;;6.78;63.04;99110.31;5032660;28;20170;-90
2023/12/10 10:58:52;;;;;;;22.73;10.93;;;;;;;6.79;62.64;99109.38;5011810;28;20270;-90
2023/12/10 11:01:38;;;;;;;22.03;10.33;;;;;;;6.63;63.12;99103.03;5022273;28;20187;-92
2023/12/10 11:04:06;;;;;;;21.90;10.20;;;;;;;6.61;64.00;99110.06;5031522;28;20197;-90
2023/12/10 11:06:34;;;;;;;24.07;9.87;;;;;;;6.63;63.53;99097.00;5031434;28;20268;-91
2023/12/10 11:09:00;;;;;;;22.27;8.90;;;;;;;6.68;63.83;99101.13;5031368;28;20181;-89
2023/12/10 11:11:26;;;;;;;20.23;9.23;;;;;;;6.69;63.95;99105.44;5031368;28;20179;-90
2023/12/10 11:13:53;;;;;;;21.23;8.90;;;;;;;6.60;64.26;99097.94;5031537;28;20214;-90
2023/12/10 11:16:21;;;;;;;24.13;9.30;;;;;;;6.43;64.46;99099.47;5031440;28;20582;-91
2023/12/10 11:19:01;;;;;;;22.27;10.73;;;;;;;6.44;64.47;99081.22;5032812;28;20171;-91
2023/12/10 11:21:26;;;;;;;22.13;9.77;;;;;;;6.58;64.26;99091.97;5032394;28;20173;-90
2023/12/10 11:23:52;;;;;;;23.17;9.83;;;;;;;6.71;64.32;99072.34;5032134;28;20566;-90
2023/12/10 11:26:17;;;;;;;22.57;9.73;;;;;;;6.87;63.29;99058.75;5031264;28;20261;-90
2023/12/10 11:28:43;;;;;;;22.93;9.57;;;;;;;6.88;63.30;99065.66;5030878;28;20684;-90